Home

PKWA Terminal Aerodrome Forecast (TAF)small logo


TAF provided by NWS Guam
2014/07/30 00:00
TAF PKWA 292346Z 3000/3024 VRB06KT P6SM VCSH FEW017 SCT035

      



Site Map | Contact Us | Copyright © 2007 Atmospheric Technology Services Company. All rights reserved.